sensor_id;sensor_type;location;lat;lon;timestamp;temperature;humidity
429;DHT22;201;48.758;9.290;2022-12-15T00:01:35;-1.30;13.20
429;DHT22;201;48.758;9.290;2022-12-15T00:04:19;-1.30;13.20
429;DHT22;201;48.758;9.290;2022-12-15T00:07:03;-1.20;13.10
429;DHT22;201;48.758;9.290;2022-12-15T00:09:47;-1.20;13.00
429;DHT22;201;48.758;9.290;2022-12-15T00:12:31;-1.20;12.70
429;DHT22;201;48.758;9.290;2022-12-15T00:15:16;-1.30;12.40
429;DHT22;201;48.758;9.290;2022-12-15T00:18:04;-1.20;12.10
429;DHT22;201;48.758;9.290;2022-12-15T00:20:48;-1.20;11.80
429;DHT22;201;48.758;9.290;2022-12-15T00:23:32;-1.10;11.80
429;DHT22;201;48.758;9.290;2022-12-15T00:26:16;-1.10;11.70
429;DHT22;201;48.758;9.290;2022-12-15T00:29:00;-1.10;11.40
429;DHT22;201;48.758;9.290;2022-12-15T00:31:44;-1.20;11.20
429;DHT22;201;48.758;9.290;2022-12-15T00:34:28;-1.20;11.20
429;DHT22;201;48.758;9.290;2022-12-15T00:37:12;-1.20;11.10
429;DHT22;201;48.758;9.290;2022-12-15T00:39:56;-1.20;11.10
429;DHT22;201;48.758;9.290;2022-12-15T00:42:27;-1.30;11.10
429;DHT22;201;48.758;9.290;2022-12-15T00:44:53;-1.30;11.10
429;DHT22;201;48.758;9.290;2022-12-15T00:47:19;-1.30;11.30
429;DHT22;201;48.758;9.290;2022-12-15T00:49:44;-1.30;11.80
429;DHT22;201;48.758;9.290;2022-12-15T00:52:36;-1.20;11.70
429;DHT22;201;48.758;9.290;2022-12-15T00:55:21;-1.20;11.30
429;DHT22;201;48.758;9.290;2022-12-15T00:58:05;-1.20;11.20
429;DHT22;201;48.758;9.290;2022-12-15T01:00:49;-1.30;11.10
429;DHT22;201;48.758;9.290;2022-12-15T01:03:33;-1.30;11.50
429;DHT22;201;48.758;9.290;2022-12-15T01:06:19;-1.40;11.60
429;DHT22;201;48.758;9.290;2022-12-15T01:09:05;-1.40;11.90
429;DHT22;201;48.758;9.290;2022-12-15T01:11:50;-1.50;11.80
429;DHT22;201;48.758;9.290;2022-12-15T01:14:34;-1.50;12.20
429;DHT22;201;48.758;9.290;2022-12-15T01:17:18;-1.50;12.40
429;DHT22;201;48.758;9.290;2022-12-15T01:20:04;-1.40;12.80
429;DHT22;201;48.758;9.290;2022-12-15T01:22:50;-1.50;12.70
429;DHT22;201;48.758;9.290;2022-12-15T01:25:18;-1.50;12.80
429;DHT22;201;48.758;9.290;2022-12-15T01:27:44;-1.50;13.00
429;DHT22;201;48.758;9.290;2022-12-15T01:30:12;-1.50;13.20
429;DHT22;201;48.758;9.290;2022-12-15T01:32:38;-1.50;13.40
429;DHT22;201;48.758;9.290;2022-12-15T01:35:05;-1.50;13.50
429;DHT22;201;48.758;9.290;2022-12-15T01:37:31;-1.40;13.40
429;DHT22;201;48.758;9.290;2022-12-15T01:39:56;-1.40;13.30
429;DHT22;201;48.758;9.290;2022-12-15T01:42:41;-1.40;13.20
429;DHT22;201;48.758;9.290;2022-12-15T01:48:14;-1.50;12.90
429;DHT22;201;48.758;9.290;2022-12-15T01:51:00;-1.60;13.10
429;DHT22;201;48.758;9.290;2022-12-15T01:53:32;-1.60;13.50
429;DHT22;201;48.758;9.290;2022-12-15T01:55:59;-1.60;13.70
429;DHT22;201;48.758;9.290;2022-12-15T01:58:25;-1.50;13.60
429;DHT22;201;48.758;9.290;2022-12-15T02:00:51;-1.50;13.50
429;DHT22;201;48.758;9.290;2022-12-15T02:03:17;-1.50;13.40
429;DHT22;201;48.758;9.290;2022-12-15T02:05:44;-1.60;13.30
429;DHT22;201;48.758;9.290;2022-12-15T02:08:10;-1.60;13.50
429;DHT22;201;48.758;9.290;2022-12-15T02:14:08;-1.70;13.70
429;DHT22;201;48.758;9.290;2022-12-15T02:27:43;-1.60;13.80
429;DHT22;201;48.758;9.290;2022-12-15T02:30:19;-1.60;13.80
429;DHT22;201;48.758;9.290;2022-12-15T02:32:49;-1.60;13.80
429;DHT22;201;48.758;9.290;2022-12-15T02:35:36;-1.60;13.60
429;DHT22;201;48.758;9.290;2022-12-15T02:38:07;-1.70;13.40
429;DHT22;201;48.758;9.290;2022-12-15T02:40:33;-1.70;13.60
429;DHT22;201;48.758;9.290;2022-12-15T02:43:00;-1.80;13.70
429;DHT22;201;48.758;9.290;2022-12-15T02:45:59;-1.80;13.90
429;DHT22;201;48.758;9.290;2022-12-15T03:00:16;-1.40;13.40
429;DHT22;201;48.758;9.290;2022-12-15T03:02:46;-1.40;13.10
429;DHT22;201;48.758;9.290;2022-12-15T03:05:13;-1.40;13.10
429;DHT22;201;48.758;9.290;2022-12-15T03:07:39;-1.40;13.10
429;DHT22;201;48.758;9.290;2022-12-15T03:10:08;-1.30;13.00
429;DHT22;201;48.758;9.290;2022-12-15T03:12:35;-1.30;12.90
429;DHT22;201;48.758;9.290;2022-12-15T03:15:01;-1.30;12.90
429;DHT22;201;48.758;9.290;2022-12-15T03:17:26;-1.40;12.80
429;DHT22;201;48.758;9.290;2022-12-15T03:19:52;-1.40;12.70
429;DHT22;201;48.758;9.290;2022-12-15T03:22:18;-1.40;12.70
429;DHT22;201;48.758;9.290;2022-12-15T03:24:43;-1.40;12.80
429;DHT22;201;48.758;9.290;2022-12-15T03:27:09;-1.40;12.70
429;DHT22;201;48.758;9.290;2022-12-15T03:29:34;-1.30;12.70
429;DHT22;201;48.758;9.290;2022-12-15T03:32:00;-1.30;12.40
429;DHT22;201;48.758;9.290;2022-12-15T03:34:25;-1.30;12.30
429;DHT22;201;48.758;9.290;2022-12-15T03:36:51;-1.20;12.10
429;DHT22;201;48.758;9.290;2022-12-15T03:39:17;-1.20;11.90
429;DHT22;201;48.758;9.290;2022-12-15T03:41:42;-1.30;11.80
429;DHT22;201;48.758;9.290;2022-12-15T03:44:08;-1.40;11.60
429;DHT22;201;48.758;9.290;2022-12-15T03:46:33;-1.30;11.70
429;DHT22;201;48.758;9.290;2022-12-15T03:48:59;-1.30;11.80
429;DHT22;201;48.758;9.290;2022-12-15T03:51:24;-1.20;11.90
429;DHT22;201;48.758;9.290;2022-12-15T03:53:50;-1.20;11.70
429;DHT22;201;48.758;9.290;2022-12-15T03:56:16;-1.30;11.50
429;DHT22;201;48.758;9.290;2022-12-15T03:58:42;-1.30;11.60
429;DHT22;201;48.758;9.290;2022-12-15T04:01:25;-1.20;11.60
429;DHT22;201;48.758;9.290;2022-12-15T04:03:52;-1.20;11.10
429;DHT22;201;48.758;9.290;2022-12-15T04:06:17;-1.20;11.10
429;DHT22;201;48.758;9.290;2022-12-15T04:08:43;-1.20;11.10
429;DHT22;201;48.758;9.290;2022-12-15T04:11:08;-1.20;11.10
429;DHT22;201;48.758;9.290;2022-12-15T04:13:34;-1.20;11.20
429;DHT22;201;48.758;9.290;2022-12-15T04:16:03;-1.20;11.20
429;DHT22;201;48.758;9.290;2022-12-15T04:18:29;-1.10;11.20
429;DHT22;201;48.758;9.290;2022-12-15T04:20:55;-1.10;11.20
429;DHT22;201;48.758;9.290;2022-12-15T04:23:21;-1.10;11.20
429;DHT22;201;48.758;9.290;2022-12-15T04:25:46;-1.10;11.20
429;DHT22;201;48.758;9.290;2022-12-15T04:28:31;-1.20;11.20
429;DHT22;201;48.758;9.290;2022-12-15T04:31:18;-1.30;11.10
429;DHT22;201;48.758;9.290;2022-12-15T04:34:10;-1.40;11.00
429;DHT22;201;48.758;9.290;2022-12-15T04:36:56;-1.60;10.80
429;DHT22;201;48.758;9.290;2022-12-15T04:39:46;-1.50;11.70
429;DHT22;201;48.758;9.290;2022-12-15T04:42:32;-1.50;11.80
429;DHT22;201;48.758;9.290;2022-12-15T04:45:20;-1.60;11.80
429;DHT22;201;48.758;9.290;2022-12-15T04:48:06;-1.70;12.10
429;DHT22;201;48.758;9.290;2022-12-15T04:50:50;-1.70;12.40
429;DHT22;201;48.758;9.290;2022-12-15T04:53:34;-1.70;12.80
429;DHT22;201;48.758;9.290;2022-12-15T04:56:18;-1.60;13.10
429;DHT22;201;48.758;9.290;2022-12-15T04:59:02;-1.60;12.90
429;DHT22;201;48.758;9.290;2022-12-15T05:01:47;-1.60;13.10
429;DHT22;201;48.758;9.290;2022-12-15T05:04:32;-1.50;13.00
429;DHT22;201;48.758;9.290;2022-12-15T05:07:16;-1.50;12.90
429;DHT22;201;48.758;9.290;2022-12-15T05:10:00;-1.40;12.70
429;DHT22;201;48.758;9.290;2022-12-15T05:12:44;-1.40;12.40
429;DHT22;201;48.758;9.290;2022-12-15T05:15:29;-1.30;12.40
429;DHT22;201;48.758;9.290;2022-12-15T05:18:14;-1.30;12.50
429;DHT22;201;48.758;9.290;2022-12-15T05:20:58;-1.30;12.30
429;DHT22;201;48.758;9.290;2022-12-15T05:23:42;-1.30;12.10
429;DHT22;201;48.758;9.290;2022-12-15T05:26:26;-1.30;12.10
429;DHT22;201;48.758;9.290;2022-12-15T05:29:10;-1.40;12.20
429;DHT22;201;48.758;9.290;2022-12-15T05:31:54;-1.40;12.20
429;DHT22;201;48.758;9.290;2022-12-15T05:34:22;-1.40;12.00
429;DHT22;201;48.758;9.290;2022-12-15T05:36:48;-1.40;11.80
429;DHT22;201;48.758;9.290;2022-12-15T05:39:14;-1.40;12.00
429;DHT22;201;48.758;9.290;2022-12-15T05:41:40;-1.30;12.00
429;DHT22;201;48.758;9.290;2022-12-15T05:44:06;-1.30;12.10
429;DHT22;201;48.758;9.290;2022-12-15T05:46:31;-1.20;12.10
429;DHT22;201;48.758;9.290;2022-12-15T05:48:57;-1.20;12.00
429;DHT22;201;48.758;9.290;2022-12-15T05:51:22;-1.20;11.60
429;DHT22;201;48.758;9.290;2022-12-15T05:53:48;-1.20;11.20
429;DHT22;201;48.758;9.290;2022-12-15T05:56:14;-1.10;11.30
429;DHT22;201;48.758;9.290;2022-12-15T05:58:40;-1.20;11.30
429;DHT22;201;48.758;9.290;2022-12-15T06:01:12;-1.20;11.40
429;DHT22;201;48.758;9.290;2022-12-15T06:03:38;-1.10;11.20
429;DHT22;201;48.758;9.290;2022-12-15T06:06:05;-1.10;11.20
429;DHT22;201;48.758;9.290;2022-12-15T06:08:33;-1.20;11.20
429;DHT22;201;48.758;9.290;2022-12-15T06:10:58;-1.30;11.10
429;DHT22;201;48.758;9.290;2022-12-15T06:13:25;-1.30;11.20
429;DHT22;201;48.758;9.290;2022-12-15T06:16:11;-1.40;11.10
429;DHT22;201;48.758;9.290;2022-12-15T06:18:39;-1.40;11.40
429;DHT22;201;48.758;9.290;2022-12-15T06:21:11;-1.50;11.90
429;DHT22;201;48.758;9.290;2022-12-15T06:23:37;-1.50;12.00
429;DHT22;201;48.758;9.290;2022-12-15T06:26:12;-1.40;12.30
429;DHT22;201;48.758;9.290;2022-12-15T06:28:38;-1.40;12.30
429;DHT22;201;48.758;9.290;2022-12-15T06:31:05;-1.30;12.40
429;DHT22;201;48.758;9.290;2022-12-15T06:33:31;-1.20;12.30
429;DHT22;201;48.758;9.290;2022-12-15T06:36:01;-1.20;12.30
429;DHT22;201;48.758;9.290;2022-12-15T06:38:28;-1.20;12.20
429;DHT22;201;48.758;9.290;2022-12-15T06:40:58;-1.10;12.10
429;DHT22;201;48.758;9.290;2022-12-15T06:43:28;-1.10;12.00
429;DHT22;201;48.758;9.290;2022-12-15T06:45:54;-1.10;12.50
429;DHT22;201;48.758;9.290;2022-12-15T06:48:20;-1.00;11.90
429;DHT22;201;48.758;9.290;2022-12-15T06:50:46;-1.10;11.90
429;DHT22;201;48.758;9.290;2022-12-15T06:53:13;-1.00;11.80
429;DHT22;201;48.758;9.290;2022-12-15T06:55:39;-1.00;11.30
429;DHT22;201;48.758;9.290;2022-12-15T06:58:05;-1.00;11.20
429;DHT22;201;48.758;9.290;2022-12-15T07:00:32;-1.00;11.70
429;DHT22;201;48.758;9.290;2022-12-15T07:02:58;-1.00;11.20
429;DHT22;201;48.758;9.290;2022-12-15T07:05:23;-1.10;11.20
429;DHT22;201;48.758;9.290;2022-12-15T07:07:50;-1.30;11.20
429;DHT22;201;48.758;9.290;2022-12-15T07:10:16;-1.30;11.80
429;DHT22;201;48.758;9.290;2022-12-15T07:12:42;-1.30;12.10
429;DHT22;201;48.758;9.290;2022-12-15T07:15:08;-1.20;12.20
429;DHT22;201;48.758;9.290;2022-12-15T07:17:35;-1.10;12.30
429;DHT22;201;48.758;9.290;2022-12-15T07:20:02;-1.10;12.20
429;DHT22;201;48.758;9.290;2022-12-15T07:22:28;-1.00;11.80
429;DHT22;201;48.758;9.290;2022-12-15T07:24:53;-1.10;11.80
429;DHT22;201;48.758;9.290;2022-12-15T07:27:19;-1.00;11.60
429;DHT22;201;48.758;9.290;2022-12-15T07:29:45;-1.00;11.60
429;DHT22;201;48.758;9.290;2022-12-15T07:32:10;-0.90;11.40
429;DHT22;201;48.758;9.290;2022-12-15T07:34:36;-0.90;11.30
429;DHT22;201;48.758;9.290;2022-12-15T07:37:01;-0.90;11.40
429;DHT22;201;48.758;9.290;2022-12-15T07:39:28;-0.90;11.40
429;DHT22;201;48.758;9.290;2022-12-15T07:41:53;-0.80;11.50
429;DHT22;201;48.758;9.290;2022-12-15T07:44:19;-0.70;11.50
429;DHT22;201;48.758;9.290;2022-12-15T07:46:45;-0.70;11.50
429;DHT22;201;48.758;9.290;2022-12-15T07:49:14;-0.70;11.50
429;DHT22;201;48.758;9.290;2022-12-15T07:51:39;-0.60;11.50
429;DHT22;201;48.758;9.290;2022-12-15T07:54:09;-0.60;11.30
429;DHT22;201;48.758;9.290;2022-12-15T07:56:36;-0.60;10.60
429;DHT22;201;48.758;9.290;2022-12-15T07:59:04;-0.60;10.30
429;DHT22;201;48.758;9.290;2022-12-15T08:01:30;-0.60;10.20
429;DHT22;201;48.758;9.290;2022-12-15T08:03:56;-0.70;9.90
429;DHT22;201;48.758;9.290;2022-12-15T08:06:21;-0.60;10.20
429;DHT22;201;48.758;9.290;2022-12-15T08:08:47;-0.50;10.40
429;DHT22;201;48.758;9.290;2022-12-15T08:11:14;-0.50;10.00
429;DHT22;201;48.758;9.290;2022-12-15T08:13:41;-0.40;9.70
429;DHT22;201;48.758;9.290;2022-12-15T08:16:08;-0.30;9.60
429;DHT22;201;48.758;9.290;2022-12-15T08:18:34;-0.40;9.10
429;DHT22;201;48.758;9.290;2022-12-15T08:21:07;-0.20;9.00
429;DHT22;201;48.758;9.290;2022-12-15T08:23:34;-0.20;8.70
429;DHT22;201;48.758;9.290;2022-12-15T08:26:03;-0.10;8.20
429;DHT22;201;48.758;9.290;2022-12-15T08:28:31;-0.10;8.10
429;DHT22;201;48.758;9.290;2022-12-15T08:31:02;-0.10;8.00
429;DHT22;201;48.758;9.290;2022-12-15T08:33:28;0.00;7.70
429;DHT22;201;48.758;9.290;2022-12-15T08:35:57;0.10;7.80
429;DHT22;201;48.758;9.290;2022-12-15T08:38:22;0.10;7.80
429;DHT22;201;48.758;9.290;2022-12-15T08:40:48;0.10;7.70
429;DHT22;201;48.758;9.290;2022-12-15T08:43:13;0.20;7.50
429;DHT22;201;48.758;9.290;2022-12-15T08:45:40;0.10;7.00
429;DHT22;201;48.758;9.290;2022-12-15T08:48:05;0.00;7.00
429;DHT22;201;48.758;9.290;2022-12-15T08:50:31;0.10;7.50
429;DHT22;201;48.758;9.290;2022-12-15T08:52:56;0.20;7.60
429;DHT22;201;48.758;9.290;2022-12-15T08:55:22;0.40;7.30
429;DHT22;201;48.758;9.290;2022-12-15T08:57:49;0.50;7.00
429;DHT22;201;48.758;9.290;2022-12-15T09:00:15;0.50;6.70
429;DHT22;201;48.758;9.290;2022-12-15T09:02:42;0.60;6.40
429;DHT22;201;48.758;9.290;2022-12-15T09:05:08;0.60;6.10
429;DHT22;201;48.758;9.290;2022-12-15T09:07:34;0.60;6.70
429;DHT22;201;48.758;9.290;2022-12-15T09:09:59;0.60;5.90
429;DHT22;201;48.758;9.290;2022-12-15T09:12:25;0.50;5.70
429;DHT22;201;48.758;9.290;2022-12-15T09:14:51;0.40;5.50
429;DHT22;201;48.758;9.290;2022-12-15T09:17:16;0.30;6.00
429;DHT22;201;48.758;9.290;2022-12-15T09:19:42;0.30;6.20
429;DHT22;201;48.758;9.290;2022-12-15T09:22:08;0.40;6.30
429;DHT22;201;48.758;9.290;2022-12-15T09:24:34;0.50;6.10
429;DHT22;201;48.758;9.290;2022-12-15T09:27:00;0.60;5.50
429;DHT22;201;48.758;9.290;2022-12-15T09:29:25;0.60;5.30
429;DHT22;201;48.758;9.290;2022-12-15T09:31:51;0.80;5.30
429;DHT22;201;48.758;9.290;2022-12-15T09:34:17;0.80;4.00
429;DHT22;201;48.758;9.290;2022-12-15T09:36:42;0.90;4.10
429;DHT22;201;48.758;9.290;2022-12-15T09:39:08;1.00;4.10
429;DHT22;201;48.758;9.290;2022-12-15T09:41:38;1.10;4.20
429;DHT22;201;48.758;9.290;2022-12-15T09:44:15;1.30;4.30
429;DHT22;201;48.758;9.290;2022-12-15T09:47:07;1.30;2.90
429;DHT22;201;48.758;9.290;2022-12-15T09:49:54;1.30;2.60
429;DHT22;201;48.758;9.290;2022-12-15T09:52:28;1.30;2.20
429;DHT22;201;48.758;9.290;2022-12-15T09:54:56;1.30;3.40
429;DHT22;201;48.758;9.290;2022-12-15T09:57:48;1.30;3.30
429;DHT22;201;48.758;9.290;2022-12-15T10:00:16;1.40;3.30
429;DHT22;201;48.758;9.290;2022-12-15T10:07:54;1.40;2.60
429;DHT22;201;48.758;9.290;2022-12-15T10:13:24;1.30;3.20
429;DHT22;201;48.758;9.290;2022-12-15T10:16:01;1.40;3.00
429;DHT22;201;48.758;9.290;2022-12-15T10:18:34;1.40;3.10
429;DHT22;201;48.758;9.290;2022-12-15T10:21:01;1.50;3.30
429;DHT22;201;48.758;9.290;2022-12-15T10:23:27;1.40;2.80
429;DHT22;201;48.758;9.290;2022-12-15T10:25:59;1.30;3.10
429;DHT22;201;48.758;9.290;2022-12-15T10:34:15;1.00;4.10
429;DHT22;201;48.758;9.290;2022-12-15T10:36:50;0.90;4.10
429;DHT22;201;48.758;9.290;2022-12-15T10:39:15;0.80;4.00
429;DHT22;201;48.758;9.290;2022-12-15T10:41:42;0.70;4.70
429;DHT22;201;48.758;9.290;2022-12-15T10:44:28;0.70;5.20
429;DHT22;201;48.758;9.290;2022-12-15T10:47:14;0.80;4.80
429;DHT22;201;48.758;9.290;2022-12-15T10:49:41;0.90;4.90
429;DHT22;201;48.758;9.290;2022-12-15T10:52:21;0.90;4.80
429;DHT22;201;48.758;9.290;2022-12-15T10:54:49;0.90;4.60
429;DHT22;201;48.758;9.290;2022-12-15T10:59:46;0.80;4.40
429;DHT22;201;48.758;9.290;2022-12-15T11:02:27;0.70;4.30
429;DHT22;201;48.758;9.290;2022-12-15T11:07:52;0.70;5.00
429;DHT22;201;48.758;9.290;2022-12-15T11:10:26;0.90;5.10
429;DHT22;201;48.758;9.290;2022-12-15T11:13:12;1.00;4.80
429;DHT22;201;48.758;9.290;2022-12-15T11:15:44;1.10;4.20
429;DHT22;201;48.758;9.290;2022-12-15T11:18:13;1.00;4.10
429;DHT22;201;48.758;9.290;2022-12-15T11:20:44;1.00;4.10
429;DHT22;201;48.758;9.290;2022-12-15T11:23:40;1.00;4.10
429;DHT22;201;48.758;9.290;2022-12-15T11:28:51;1.00;4.10
429;DHT22;201;48.758;9.290;2022-12-15T11:31:36;1.10;4.20
429;DHT22;201;48.758;9.290;2022-12-15T11:34:03;1.20;4.30
429;DHT22;201;48.758;9.290;2022-12-15T11:47:26;1.40;4.40
429;DHT22;201;48.758;9.290;2022-12-15T11:50:15;1.40;4.40
429;DHT22;201;48.758;9.290;2022-12-15T11:52:47;1.40;4.40
429;DHT22;201;48.758;9.290;2022-12-15T11:55:34;1.50;4.50
429;DHT22;201;48.758;9.290;2022-12-15T12:01:18;1.60;4.30
429;DHT22;201;48.758;9.290;2022-12-15T12:09:34;1.50;4.50
429;DHT22;201;48.758;9.290;2022-12-15T12:15:07;1.30;4.40
429;DHT22;201;48.758;9.290;2022-12-15T12:17:50;1.30;4.30
429;DHT22;201;48.758;9.290;2022-12-15T12:20:20;1.40;4.40
429;DHT22;201;48.758;9.290;2022-12-15T12:22:57;1.40;4.40
429;DHT22;201;48.758;9.290;2022-12-15T12:25:27;1.50;4.50
429;DHT22;201;48.758;9.290;2022-12-15T12:28:00;1.60;4.50
429;DHT22;201;48.758;9.290;2022-12-15T12:30:32;1.70;4.60
429;DHT22;201;48.758;9.290;2022-12-15T12:33:39;1.90;4.70
429;DHT22;201;48.758;9.290;2022-12-15T12:36:11;1.90;2.90
429;DHT22;201;48.758;9.290;2022-12-15T12:38:50;1.90;2.70
429;DHT22;201;48.758;9.290;2022-12-15T12:44:22;1.90;3.20
429;DHT22;201;48.758;9.290;2022-12-15T12:46:52;2.10;3.00
429;DHT22;201;48.758;9.290;2022-12-15T12:49:26;2.30;2.30
429;DHT22;201;48.758;9.290;2022-12-15T12:51:54;2.30;1.60
429;DHT22;201;48.758;9.290;2022-12-15T12:56:59;2.20;1.90
429;DHT22;201;48.758;9.290;2022-12-15T13:01:57;2.00;1.70
429;DHT22;201;48.758;9.290;2022-12-15T13:04:38;1.90;2.10
429;DHT22;201;48.758;9.290;2022-12-15T13:14:57;1.70;3.50
429;DHT22;201;48.758;9.290;2022-12-15T13:17:27;1.60;3.80
429;DHT22;201;48.758;9.290;2022-12-15T13:22:34;1.40;4.40
429;DHT22;201;48.758;9.290;2022-12-15T13:25:01;1.30;4.30
429;DHT22;201;48.758;9.290;2022-12-15T13:27:35;1.20;4.40
429;DHT22;201;48.758;9.290;2022-12-15T13:32:41;1.20;5.50
429;DHT22;201;48.758;9.290;2022-12-15T13:37:59;1.20;6.00
429;DHT22;201;48.758;9.290;2022-12-15T13:45:49;1.10;6.20
429;DHT22;201;48.758;9.290;2022-12-15T13:48:29;1.20;5.90
429;DHT22;201;48.758;9.290;2022-12-15T13:51:26;1.20;5.80
429;DHT22;201;48.758;9.290;2022-12-15T13:53:59;1.00;5.90
429;DHT22;201;48.758;9.290;2022-12-15T13:56:45;0.90;6.00
429;DHT22;201;48.758;9.290;2022-12-15T13:59:36;0.90;6.60
429;DHT22;201;48.758;9.290;2022-12-15T14:05:17;0.80;7.30
429;DHT22;201;48.758;9.290;2022-12-15T14:10:22;0.80;7.50
429;DHT22;201;48.758;9.290;2022-12-15T14:12:50;0.80;7.80
429;DHT22;201;48.758;9.290;2022-12-15T14:15:19;0.80;7.70
429;DHT22;201;48.758;9.290;2022-12-15T14:17:49;0.80;7.70
429;DHT22;201;48.758;9.290;2022-12-15T14:20:24;0.80;8.00
429;DHT22;201;48.758;9.290;2022-12-15T14:22:50;0.80;8.20
429;DHT22;201;48.758;9.290;2022-12-15T14:25:27;0.80;8.10
429;DHT22;201;48.758;9.290;2022-12-15T14:27:56;0.70;7.90
429;DHT22;201;48.758;9.290;2022-12-15T14:30:27;0.80;8.30
429;DHT22;201;48.758;9.290;2022-12-15T14:33:07;0.70;8.20
429;DHT22;201;48.758;9.290;2022-12-15T14:35:46;0.70;8.30
429;DHT22;201;48.758;9.290;2022-12-15T14:38:22;0.70;8.20
429;DHT22;201;48.758;9.290;2022-12-15T14:40:50;0.80;8.30
429;DHT22;201;48.758;9.290;2022-12-15T14:43:20;0.70;8.20
429;DHT22;201;48.758;9.290;2022-12-15T14:45:55;0.60;8.20
429;DHT22;201;48.758;9.290;2022-12-15T14:48:27;0.60;8.50
429;DHT22;201;48.758;9.290;2022-12-15T14:50:56;0.50;8.60
429;DHT22;201;48.758;9.290;2022-12-15T14:53:29;0.50;8.90
429;DHT22;201;48.758;9.290;2022-12-15T14:55:55;0.50;9.20
429;DHT22;201;48.758;9.290;2022-12-15T14:58:31;0.40;9.20
429;DHT22;201;48.758;9.290;2022-12-15T15:00:57;0.40;9.40
429;DHT22;201;48.758;9.290;2022-12-15T15:03:41;0.30;9.60
429;DHT22;201;48.758;9.290;2022-12-15T15:08:55;0.30;10.30
429;DHT22;201;48.758;9.290;2022-12-15T15:11:30;0.30;10.20
429;DHT22;201;48.758;9.290;2022-12-15T15:19:56;0.20;10.00
429;DHT22;201;48.758;9.290;2022-12-15T15:22:41;0.30;10.30
429;DHT22;201;48.758;9.290;2022-12-15T15:25:28;0.30;10.50
429;DHT22;201;48.758;9.290;2022-12-15T15:30:50;0.30;10.20
429;DHT22;201;48.758;9.290;2022-12-15T15:33:16;0.30;10.30
429;DHT22;201;48.758;9.290;2022-12-15T15:35:43;0.30;10.40
429;DHT22;201;48.758;9.290;2022-12-15T15:38:22;0.30;10.50
429;DHT22;201;48.758;9.290;2022-12-15T15:40:54;0.20;10.60
429;DHT22;201;48.758;9.290;2022-12-15T15:43:20;0.20;10.80
429;DHT22;201;48.758;9.290;2022-12-15T15:45:47;0.20;11.40
429;DHT22;201;48.758;9.290;2022-12-15T15:48:34;0.20;10.70
429;DHT22;201;48.758;9.290;2022-12-15T15:51:01;0.20;10.90
429;DHT22;201;48.758;9.290;2022-12-15T15:53:30;0.20;10.70
429;DHT22;201;48.758;9.290;2022-12-15T15:55:57;0.20;10.80
429;DHT22;201;48.758;9.290;2022-12-15T15:58:22;0.20;10.70
429;DHT22;201;48.758;9.290;2022-12-15T16:00:48;0.20;10.60
429;DHT22;201;48.758;9.290;2022-12-15T16:03:13;0.20;10.60
429;DHT22;201;48.758;9.290;2022-12-15T16:05:40;0.20;10.40
429;DHT22;201;48.758;9.290;2022-12-15T16:08:08;0.20;10.40
429;DHT22;201;48.758;9.290;2022-12-15T16:10:37;0.20;10.50
429;DHT22;201;48.758;9.290;2022-12-15T16:13:02;0.10;10.20
429;DHT22;201;48.758;9.290;2022-12-15T16:15:29;0.20;10.70
429;DHT22;201;48.758;9.290;2022-12-15T16:17:58;0.20;10.70
429;DHT22;201;48.758;9.290;2022-12-15T16:20:26;0.20;10.30
429;DHT22;201;48.758;9.290;2022-12-15T16:22:55;0.20;10.30
429;DHT22;201;48.758;9.290;2022-12-15T16:25:28;0.20;10.30
429;DHT22;201;48.758;9.290;2022-12-15T16:27:54;0.20;10.40
429;DHT22;201;48.758;9.290;2022-12-15T16:30:22;0.20;10.30
429;DHT22;201;48.758;9.290;2022-12-15T16:32:50;0.20;9.90
429;DHT22;201;48.758;9.290;2022-12-15T16:35:16;0.20;9.90
429;DHT22;201;48.758;9.290;2022-12-15T16:37:42;0.20;9.80
429;DHT22;201;48.758;9.290;2022-12-15T16:40:37;0.20;9.90
429;DHT22;201;48.758;9.290;2022-12-15T16:43:08;0.10;9.90
429;DHT22;201;48.758;9.290;2022-12-15T16:45:34;0.10;9.80
429;DHT22;201;48.758;9.290;2022-12-15T16:48:00;0.10;9.90
429;DHT22;201;48.758;9.290;2022-12-15T16:50:29;0.10;9.90
429;DHT22;201;48.758;9.290;2022-12-15T16:52:57;0.10;10.00
429;DHT22;201;48.758;9.290;2022-12-15T16:55:27;0.10;10.10
429;DHT22;201;48.758;9.290;2022-12-15T16:58:03;0.10;10.10
429;DHT22;201;48.758;9.290;2022-12-15T17:00:32;0.10;9.90
429;DHT22;201;48.758;9.290;2022-12-15T17:02:59;0.20;9.90
429;DHT22;201;48.758;9.290;2022-12-15T17:05:27;0.20;10.00
429;DHT22;201;48.758;9.290;2022-12-15T17:07:58;0.20;9.70
429;DHT22;201;48.758;9.290;2022-12-15T17:10:27;0.10;9.70
429;DHT22;201;48.758;9.290;2022-12-15T17:12:59;0.10;9.80
429;DHT22;201;48.758;9.290;2022-12-15T17:15:27;0.10;9.80
429;DHT22;201;48.758;9.290;2022-12-15T17:17:53;0.10;10.00
429;DHT22;201;48.758;9.290;2022-12-15T17:20:25;0.10;10.10
429;DHT22;201;48.758;9.290;2022-12-15T17:22:54;0.10;9.20
429;DHT22;201;48.758;9.290;2022-12-15T17:25:25;0.10;9.20
429;DHT22;201;48.758;9.290;2022-12-15T17:27:53;0.10;9.00
429;DHT22;201;48.758;9.290;2022-12-15T17:30:20;0.10;9.00
429;DHT22;201;48.758;9.290;2022-12-15T17:32:46;0.00;8.90
429;DHT22;201;48.758;9.290;2022-12-15T17:35:13;0.00;8.90
429;DHT22;201;48.758;9.290;2022-12-15T17:37:39;0.00;8.90
429;DHT22;201;48.758;9.290;2022-12-15T17:40:23;-0.10;9.10
429;DHT22;201;48.758;9.290;2022-12-15T17:42:49;0.00;9.30
429;DHT22;201;48.758;9.290;2022-12-15T17:45:21;0.00;9.40
429;DHT22;201;48.758;9.290;2022-12-15T17:47:48;0.00;9.50
429;DHT22;201;48.758;9.290;2022-12-15T17:50:14;0.00;9.10
429;DHT22;201;48.758;9.290;2022-12-15T17:52:40;0.00;9.40
429;DHT22;201;48.758;9.290;2022-12-15T17:55:22;0.00;9.40
429;DHT22;201;48.758;9.290;2022-12-15T17:57:49;0.10;9.30
429;DHT22;201;48.758;9.290;2022-12-15T18:02:45;0.00;9.00
429;DHT22;201;48.758;9.290;2022-12-15T18:05:11;0.00;9.10
429;DHT22;201;48.758;9.290;2022-12-15T18:07:36;0.00;9.10
429;DHT22;201;48.758;9.290;2022-12-15T18:10:02;-0.10;8.90
429;DHT22;201;48.758;9.290;2022-12-15T18:12:28;0.00;9.20
429;DHT22;201;48.758;9.290;2022-12-15T18:14:54;0.00;9.50
429;DHT22;201;48.758;9.290;2022-12-15T18:17:21;0.00;9.60
429;DHT22;201;48.758;9.290;2022-12-15T18:19:47;0.00;9.60
429;DHT22;201;48.758;9.290;2022-12-15T18:22:16;0.00;9.30
429;DHT22;201;48.758;9.290;2022-12-15T18:24:43;0.10;9.60
429;DHT22;201;48.758;9.290;2022-12-15T18:27:27;0.00;9.40
429;DHT22;201;48.758;9.290;2022-12-15T18:29:53;0.10;9.40
429;DHT22;201;48.758;9.290;2022-12-15T18:32:21;0.00;9.30
429;DHT22;201;48.758;9.290;2022-12-15T18:34:47;0.00;9.20
429;DHT22;201;48.758;9.290;2022-12-15T18:37:17;-0.10;9.20
429;DHT22;201;48.758;9.290;2022-12-15T18:39:44;-0.10;9.40
429;DHT22;201;48.758;9.290;2022-12-15T18:42:14;-0.10;9.30
429;DHT22;201;48.758;9.290;2022-12-15T18:44:50;-0.20;9.40
429;DHT22;201;48.758;9.290;2022-12-15T18:47:18;-0.10;9.40
429;DHT22;201;48.758;9.290;2022-12-15T18:49:44;-0.20;9.20
429;DHT22;201;48.758;9.290;2022-12-15T18:52:20;-0.20;9.20
429;DHT22;201;48.758;9.290;2022-12-15T18:54:48;-0.30;9.10
429;DHT22;201;48.758;9.290;2022-12-15T18:57:26;-0.30;8.80
429;DHT22;201;48.758;9.290;2022-12-15T18:59:58;-0.30;8.80
429;DHT22;201;48.758;9.290;2022-12-15T19:02:26;-0.20;9.00
429;DHT22;201;48.758;9.290;2022-12-15T19:04:51;-0.20;8.90
429;DHT22;201;48.758;9.290;2022-12-15T19:07:17;-0.20;9.10
429;DHT22;201;48.758;9.290;2022-12-15T19:09:43;-0.20;9.10
429;DHT22;201;48.758;9.290;2022-12-15T19:12:14;-0.20;9.00
429;DHT22;201;48.758;9.290;2022-12-15T19:14:44;-0.20;9.10
429;DHT22;201;48.758;9.290;2022-12-15T19:17:13;-0.20;9.10
429;DHT22;201;48.758;9.290;2022-12-15T19:19:59;-0.20;9.10
429;DHT22;201;48.758;9.290;2022-12-15T19:22:43;-0.20;9.30
429;DHT22;201;48.758;9.290;2022-12-15T19:25:13;-0.20;9.20